Airport View

Enter AWOS ICAO identifier for current METAR.

ex. KFNL

KRRL 170955Z AUTO 18004KT 7SM SCT017 SCT110 00/M03 A2998 RMK AO2 T00001026 TSNO

17 Nov 2019 09:58

Frequency: 119.925

Phone: 715-539-8422

Other Area AWOS: KTKV - KAUW - KCWA - KAIG

TAF KAUW 170520Z 1706/1806 15008KT P6SM SCT020 BKN150 FM171000 17007KT P6SM BKN015 OVC070 FM171300 19007KT 1 1/2SM -SN OVC005 FM171800 21006KT 3SM -DZSN OVC008 FM180000 27004KT P6SM BKN007